sensor_id;sensor_type;location;lat;lon;timestamp;P1;durP1;ratioP1;P2;durP2;ratioP2
787;SDS011;16074;42.708;23.312;2023-02-15T00:02:10;43.20;;;26.60;;
787;SDS011;16074;42.708;23.312;2023-02-15T00:04:38;40.25;;;26.10;;
787;SDS011;16074;42.708;23.312;2023-02-15T00:07:17;44.40;;;26.13;;
787;SDS011;16074;42.708;23.312;2023-02-15T00:09:48;45.45;;;27.73;;
787;SDS011;16074;42.708;23.312;2023-02-15T00:12:16;41.40;;;26.63;;
787;SDS011;16074;42.708;23.312;2023-02-15T00:14:44;42.22;;;26.92;;
787;SDS011;16074;42.708;23.312;2023-02-15T00:17:12;40.80;;;28.08;;
787;SDS011;16074;42.708;23.312;2023-02-15T00:19:41;43.97;;;25.63;;
787;SDS011;16074;42.708;23.312;2023-02-15T00:22:09;44.13;;;25.60;;
787;SDS011;16074;42.708;23.312;2023-02-15T00:24:37;42.45;;;26.42;;
787;SDS011;16074;42.708;23.312;2023-02-15T00:27:07;42.28;;;26.17;;
787;SDS011;16074;42.708;23.312;2023-02-15T00:29:36;45.42;;;26.27;;
787;SDS011;16074;42.708;23.312;2023-02-15T00:32:04;40.28;;;27.92;;
787;SDS011;16074;42.708;23.312;2023-02-15T00:34:32;43.00;;;25.52;;
787;SDS011;16074;42.708;23.312;2023-02-15T00:37:00;41.53;;;26.90;;
787;SDS011;16074;42.708;23.312;2023-02-15T00:39:29;43.42;;;25.95;;
787;SDS011;16074;42.708;23.312;2023-02-15T00:41:58;40.85;;;25.52;;
787;SDS011;16074;42.708;23.312;2023-02-15T00:44:27;39.97;;;25.23;;
787;SDS011;16074;42.708;23.312;2023-02-15T00:46:56;46.72;;;26.65;;
787;SDS011;16074;42.708;23.312;2023-02-15T00:49:24;38.13;;;25.73;;
787;SDS011;16074;42.708;23.312;2023-02-15T00:51:53;44.22;;;25.27;;
787;SDS011;16074;42.708;23.312;2023-02-15T00:54:21;38.08;;;25.98;;
787;SDS011;16074;42.708;23.312;2023-02-15T00:56:49;42.20;;;27.30;;
787;SDS011;16074;42.708;23.312;2023-02-15T00:59:17;41.55;;;24.60;;
787;SDS011;16074;42.708;23.312;2023-02-15T01:01:48;47.80;;;26.88;;
787;SDS011;16074;42.708;23.312;2023-02-15T01:04:18;36.63;;;25.23;;
787;SDS011;16074;42.708;23.312;2023-02-15T01:06:46;45.67;;;28.17;;
787;SDS011;16074;42.708;23.312;2023-02-15T01:09:15;36.72;;;24.90;;
787;SDS011;16074;42.708;23.312;2023-02-15T01:11:43;44.55;;;28.02;;
787;SDS011;16074;42.708;23.312;2023-02-15T01:14:11;46.10;;;25.70;;
787;SDS011;16074;42.708;23.312;2023-02-15T01:16:40;37.70;;;25.10;;
787;SDS011;16074;42.708;23.312;2023-02-15T01:19:10;37.33;;;25.33;;
787;SDS011;16074;42.708;23.312;2023-02-15T01:21:38;48.90;;;28.70;;
787;SDS011;16074;42.708;23.312;2023-02-15T01:24:11;37.20;;;25.08;;
787;SDS011;16074;42.708;23.312;2023-02-15T01:26:39;41.22;;;26.15;;
787;SDS011;16074;42.708;23.312;2023-02-15T01:29:08;43.13;;;27.17;;
787;SDS011;16074;42.708;23.312;2023-02-15T01:31:36;37.75;;;23.95;;
787;SDS011;16074;42.708;23.312;2023-02-15T01:34:06;40.28;;;24.45;;
787;SDS011;16074;42.708;23.312;2023-02-15T01:36:35;36.70;;;24.40;;
787;SDS011;16074;42.708;23.312;2023-02-15T01:39:03;41.72;;;26.77;;
787;SDS011;16074;42.708;23.312;2023-02-15T01:41:32;42.15;;;26.52;;
787;SDS011;16074;42.708;23.312;2023-02-15T01:44:01;40.40;;;24.50;;
787;SDS011;16074;42.708;23.312;2023-02-15T01:46:31;43.35;;;26.75;;
787;SDS011;16074;42.708;23.312;2023-02-15T01:49:03;35.95;;;23.77;;
787;SDS011;16074;42.708;23.312;2023-02-15T01:51:38;33.58;;;24.00;;
787;SDS011;16074;42.708;23.312;2023-02-15T01:54:11;35.35;;;22.65;;
787;SDS011;16074;42.708;23.312;2023-02-15T01:56:44;36.67;;;23.23;;
787;SDS011;16074;42.708;23.312;2023-02-15T01:59:15;33.65;;;23.88;;
787;SDS011;16074;42.708;23.312;2023-02-15T02:01:48;55.38;;;27.55;;
787;SDS011;16074;42.708;23.312;2023-02-15T02:04:17;37.05;;;23.55;;
787;SDS011;16074;42.708;23.312;2023-02-15T02:06:54;35.67;;;25.17;;
787;SDS011;16074;42.708;23.312;2023-02-15T02:09:24;35.88;;;23.90;;
787;SDS011;16074;42.708;23.312;2023-02-15T02:11:54;39.40;;;25.58;;
787;SDS011;16074;42.708;23.312;2023-02-15T02:14:22;36.50;;;26.75;;
787;SDS011;16074;42.708;23.312;2023-02-15T02:16:53;38.33;;;24.63;;
787;SDS011;16074;42.708;23.312;2023-02-15T02:19:42;47.65;;;27.02;;
787;SDS011;16074;42.708;23.312;2023-02-15T02:22:46;34.08;;;23.92;;
787;SDS011;16074;42.708;23.312;2023-02-15T02:25:50;41.95;;;25.15;;
787;SDS011;16074;42.708;23.312;2023-02-15T02:28:51;37.53;;;25.15;;
787;SDS011;16074;42.708;23.312;2023-02-15T02:32:03;40.80;;;27.02;;
787;SDS011;16074;42.708;23.312;2023-02-15T02:34:46;43.15;;;26.13;;
787;SDS011;16074;42.708;23.312;2023-02-15T02:37:21;35.95;;;24.02;;
787;SDS011;16074;42.708;23.312;2023-02-15T02:39:56;42.58;;;24.42;;
787;SDS011;16074;42.708;23.312;2023-02-15T02:42:33;40.40;;;26.08;;
787;SDS011;16074;42.708;23.312;2023-02-15T02:45:07;38.95;;;25.33;;
787;SDS011;16074;42.708;23.312;2023-02-15T02:47:38;41.03;;;26.77;;
787;SDS011;16074;42.708;23.312;2023-02-15T02:50:14;36.10;;;24.67;;
787;SDS011;16074;42.708;23.312;2023-02-15T02:52:44;36.15;;;24.83;;
787;SDS011;16074;42.708;23.312;2023-02-15T02:55:15;40.75;;;24.58;;
787;SDS011;16074;42.708;23.312;2023-02-15T02:57:52;35.55;;;24.35;;
787;SDS011;16074;42.708;23.312;2023-02-15T03:00:23;35.63;;;23.27;;
787;SDS011;16074;42.708;23.312;2023-02-15T03:02:54;39.47;;;23.20;;
787;SDS011;16074;42.708;23.312;2023-02-15T03:05:33;40.33;;;24.80;;
787;SDS011;16074;42.708;23.312;2023-02-15T03:08:04;37.38;;;23.23;;
787;SDS011;16074;42.708;23.312;2023-02-15T03:10:37;35.20;;;24.83;;
787;SDS011;16074;42.708;23.312;2023-02-15T03:13:07;36.08;;;24.15;;
787;SDS011;16074;42.708;23.312;2023-02-15T03:15:37;39.17;;;24.52;;
787;SDS011;16074;42.708;23.312;2023-02-15T03:18:28;35.70;;;23.05;;
787;SDS011;16074;42.708;23.312;2023-02-15T03:21:03;35.85;;;23.90;;
787;SDS011;16074;42.708;23.312;2023-02-15T03:23:35;35.72;;;23.38;;
787;SDS011;16074;42.708;23.312;2023-02-15T03:26:05;37.75;;;22.58;;
787;SDS011;16074;42.708;23.312;2023-02-15T03:28:38;35.53;;;23.95;;
787;SDS011;16074;42.708;23.312;2023-02-15T03:31:11;32.78;;;23.75;;
787;SDS011;16074;42.708;23.312;2023-02-15T03:33:42;32.97;;;23.75;;
787;SDS011;16074;42.708;23.312;2023-02-15T03:36:17;32.30;;;22.13;;
787;SDS011;16074;42.708;23.312;2023-02-15T03:38:50;39.58;;;23.15;;
787;SDS011;16074;42.708;23.312;2023-02-15T03:41:29;37.72;;;23.60;;
787;SDS011;16074;42.708;23.312;2023-02-15T03:44:03;37.45;;;23.17;;
787;SDS011;16074;42.708;23.312;2023-02-15T03:46:37;34.10;;;22.95;;
787;SDS011;16074;42.708;23.312;2023-02-15T03:49:12;35.47;;;23.40;;
787;SDS011;16074;42.708;23.312;2023-02-15T03:51:47;31.50;;;22.35;;
787;SDS011;16074;42.708;23.312;2023-02-15T03:54:19;32.13;;;22.33;;
787;SDS011;16074;42.708;23.312;2023-02-15T03:57:10;32.15;;;21.92;;
787;SDS011;16074;42.708;23.312;2023-02-15T03:59:59;35.15;;;21.95;;
787;SDS011;16074;42.708;23.312;2023-02-15T04:02:50;34.92;;;22.92;;
787;SDS011;16074;42.708;23.312;2023-02-15T04:05:28;29.58;;;22.05;;
787;SDS011;16074;42.708;23.312;2023-02-15T04:07:58;31.70;;;21.50;;
787;SDS011;16074;42.708;23.312;2023-02-15T04:10:26;32.03;;;23.63;;
787;SDS011;16074;42.708;23.312;2023-02-15T04:13:12;35.53;;;22.38;;
787;SDS011;16074;42.708;23.312;2023-02-15T04:15:40;32.88;;;22.83;;
787;SDS011;16074;42.708;23.312;2023-02-15T04:18:27;35.40;;;24.40;;
787;SDS011;16074;42.708;23.312;2023-02-15T04:21:13;33.30;;;21.27;;
787;SDS011;16074;42.708;23.312;2023-02-15T04:24:00;35.30;;;22.67;;
787;SDS011;16074;42.708;23.312;2023-02-15T04:26:46;32.28;;;22.83;;
787;SDS011;16074;42.708;23.312;2023-02-15T04:29:15;32.22;;;21.23;;
787;SDS011;16074;42.708;23.312;2023-02-15T04:31:43;35.17;;;21.77;;
787;SDS011;16074;42.708;23.312;2023-02-15T04:34:12;30.23;;;21.08;;
787;SDS011;16074;42.708;23.312;2023-02-15T04:36:40;35.60;;;22.42;;
787;SDS011;16074;42.708;23.312;2023-02-15T04:39:12;33.15;;;22.42;;
787;SDS011;16074;42.708;23.312;2023-02-15T04:41:42;35.08;;;21.73;;
787;SDS011;16074;42.708;23.312;2023-02-15T04:44:11;33.70;;;23.48;;
787;SDS011;16074;42.708;23.312;2023-02-15T04:46:39;32.95;;;23.60;;
787;SDS011;16074;42.708;23.312;2023-02-15T04:49:07;37.10;;;22.40;;
787;SDS011;16074;42.708;23.312;2023-02-15T04:51:36;33.67;;;22.65;;
787;SDS011;16074;42.708;23.312;2023-02-15T04:54:04;37.08;;;22.30;;
787;SDS011;16074;42.708;23.312;2023-02-15T04:56:34;31.33;;;21.70;;
787;SDS011;16074;42.708;23.312;2023-02-15T04:59:04;33.22;;;22.80;;
787;SDS011;16074;42.708;23.312;2023-02-15T05:01:33;33.67;;;21.48;;
787;SDS011;16074;42.708;23.312;2023-02-15T05:04:01;30.33;;;21.00;;
787;SDS011;16074;42.708;23.312;2023-02-15T05:06:30;32.20;;;22.73;;
787;SDS011;16074;42.708;23.312;2023-02-15T05:08:58;36.38;;;24.75;;
787;SDS011;16074;42.708;23.312;2023-02-15T05:11:26;34.10;;;23.35;;
787;SDS011;16074;42.708;23.312;2023-02-15T05:13:56;31.48;;;22.08;;
787;SDS011;16074;42.708;23.312;2023-02-15T05:16:24;31.35;;;21.90;;
787;SDS011;16074;42.708;23.312;2023-02-15T05:18:54;33.70;;;22.00;;
787;SDS011;16074;42.708;23.312;2023-02-15T05:21:22;29.30;;;21.40;;
787;SDS011;16074;42.708;23.312;2023-02-15T05:23:50;34.97;;;23.55;;
787;SDS011;16074;42.708;23.312;2023-02-15T05:26:19;32.83;;;23.58;;
787;SDS011;16074;42.708;23.312;2023-02-15T05:29:07;37.67;;;23.05;;
787;SDS011;16074;42.708;23.312;2023-02-15T05:31:36;33.92;;;21.38;;
787;SDS011;16074;42.708;23.312;2023-02-15T05:34:05;39.22;;;23.85;;
787;SDS011;16074;42.708;23.312;2023-02-15T05:36:33;34.58;;;22.73;;
787;SDS011;16074;42.708;23.312;2023-02-15T05:39:02;41.75;;;26.38;;
787;SDS011;16074;42.708;23.312;2023-02-15T05:41:32;37.65;;;23.60;;
787;SDS011;16074;42.708;23.312;2023-02-15T05:44:00;38.63;;;24.40;;
787;SDS011;16074;42.708;23.312;2023-02-15T05:46:30;36.60;;;23.08;;
787;SDS011;16074;42.708;23.312;2023-02-15T05:48:58;34.65;;;23.77;;
787;SDS011;16074;42.708;23.312;2023-02-15T05:51:27;33.42;;;22.65;;
787;SDS011;16074;42.708;23.312;2023-02-15T05:53:55;33.25;;;23.13;;
787;SDS011;16074;42.708;23.312;2023-02-15T05:56:23;33.20;;;23.85;;
787;SDS011;16074;42.708;23.312;2023-02-15T05:58:52;32.40;;;23.08;;
787;SDS011;16074;42.708;23.312;2023-02-15T06:01:20;36.13;;;22.33;;
787;SDS011;16074;42.708;23.312;2023-02-15T06:03:50;33.40;;;21.92;;
787;SDS011;16074;42.708;23.312;2023-02-15T06:06:20;28.67;;;20.83;;
787;SDS011;16074;42.708;23.312;2023-02-15T06:08:48;30.98;;;21.42;;
787;SDS011;16074;42.708;23.312;2023-02-15T06:11:17;31.67;;;21.67;;
787;SDS011;16074;42.708;23.312;2023-02-15T06:13:45;30.88;;;21.80;;
787;SDS011;16074;42.708;23.312;2023-02-15T06:16:13;33.75;;;21.77;;
787;SDS011;16074;42.708;23.312;2023-02-15T06:18:42;32.08;;;20.98;;
787;SDS011;16074;42.708;23.312;2023-02-15T06:21:12;30.20;;;22.38;;
787;SDS011;16074;42.708;23.312;2023-02-15T06:23:40;32.78;;;20.60;;
787;SDS011;16074;42.708;23.312;2023-02-15T06:26:09;28.52;;;20.75;;
787;SDS011;16074;42.708;23.312;2023-02-15T06:28:37;29.95;;;20.77;;
787;SDS011;16074;42.708;23.312;2023-02-15T06:31:07;34.58;;;22.20;;
787;SDS011;16074;42.708;23.312;2023-02-15T06:33:36;29.38;;;20.25;;
787;SDS011;16074;42.708;23.312;2023-02-15T06:36:04;36.10;;;23.80;;
787;SDS011;16074;42.708;23.312;2023-02-15T06:38:34;34.22;;;21.80;;
787;SDS011;16074;42.708;23.312;2023-02-15T06:41:02;35.85;;;22.25;;
787;SDS011;16074;42.708;23.312;2023-02-15T06:43:31;35.28;;;21.70;;
787;SDS011;16074;42.708;23.312;2023-02-15T06:46:00;29.08;;;21.13;;
787;SDS011;16074;42.708;23.312;2023-02-15T06:48:29;30.70;;;21.20;;
787;SDS011;16074;42.708;23.312;2023-02-15T06:50:57;32.20;;;21.75;;
787;SDS011;16074;42.708;23.312;2023-02-15T06:53:26;31.73;;;20.70;;
787;SDS011;16074;42.708;23.312;2023-02-15T06:56:01;29.50;;;19.92;;
787;SDS011;16074;42.708;23.312;2023-02-15T06:58:32;31.75;;;20.67;;
787;SDS011;16074;42.708;23.312;2023-02-15T07:01:01;32.33;;;20.42;;
787;SDS011;16074;42.708;23.312;2023-02-15T07:03:29;32.10;;;23.02;;
787;SDS011;16074;42.708;23.312;2023-02-15T07:05:58;27.23;;;18.85;;
787;SDS011;16074;42.708;23.312;2023-02-15T07:08:28;29.10;;;18.65;;
787;SDS011;16074;42.708;23.312;2023-02-15T07:10:57;26.08;;;19.23;;
787;SDS011;16074;42.708;23.312;2023-02-15T07:13:47;32.17;;;20.05;;
787;SDS011;16074;42.708;23.312;2023-02-15T07:16:14;28.38;;;18.92;;
787;SDS011;16074;42.708;23.312;2023-02-15T07:18:42;29.20;;;18.73;;
787;SDS011;16074;42.708;23.312;2023-02-15T07:21:10;22.63;;;18.83;;
787;SDS011;16074;42.708;23.312;2023-02-15T07:23:39;24.85;;;18.42;;
787;SDS011;16074;42.708;23.312;2023-02-15T07:26:07;24.48;;;18.63;;
787;SDS011;16074;42.708;23.312;2023-02-15T07:28:36;28.15;;;20.42;;
787;SDS011;16074;42.708;23.312;2023-02-15T07:31:06;27.52;;;17.95;;
787;SDS011;16074;42.708;23.312;2023-02-15T07:33:34;22.85;;;17.27;;
787;SDS011;16074;42.708;23.312;2023-02-15T07:36:03;23.92;;;18.00;;
787;SDS011;16074;42.708;23.312;2023-02-15T07:38:33;27.90;;;19.95;;
787;SDS011;16074;42.708;23.312;2023-02-15T07:41:03;30.33;;;20.80;;
787;SDS011;16074;42.708;23.312;2023-02-15T07:43:32;28.70;;;19.98;;
787;SDS011;16074;42.708;23.312;2023-02-15T07:46:02;24.20;;;18.45;;
787;SDS011;16074;42.708;23.312;2023-02-15T07:48:35;29.92;;;18.08;;
787;SDS011;16074;42.708;23.312;2023-02-15T07:51:05;27.00;;;19.15;;
787;SDS011;16074;42.708;23.312;2023-02-15T07:53:35;30.50;;;18.17;;
787;SDS011;16074;42.708;23.312;2023-02-15T07:56:04;28.05;;;17.98;;
787;SDS011;16074;42.708;23.312;2023-02-15T07:58:35;26.85;;;17.65;;
787;SDS011;16074;42.708;23.312;2023-02-15T08:01:19;27.15;;;19.02;;
787;SDS011;16074;42.708;23.312;2023-02-15T08:03:49;28.02;;;19.40;;
787;SDS011;16074;42.708;23.312;2023-02-15T08:06:18;29.17;;;19.75;;
787;SDS011;16074;42.708;23.312;2023-02-15T08:08:46;28.65;;;18.67;;
787;SDS011;16074;42.708;23.312;2023-02-15T08:11:16;25.33;;;18.58;;
787;SDS011;16074;42.708;23.312;2023-02-15T08:14:00;24.65;;;18.42;;
787;SDS011;16074;42.708;23.312;2023-02-15T08:16:32;20.35;;;16.02;;
787;SDS011;16074;42.708;23.312;2023-02-15T08:19:03;24.15;;;17.25;;
787;SDS011;16074;42.708;23.312;2023-02-15T08:21:34;23.15;;;16.83;;
787;SDS011;16074;42.708;23.312;2023-02-15T08:24:03;25.85;;;17.13;;
787;SDS011;16074;42.708;23.312;2023-02-15T08:26:33;23.40;;;16.75;;
787;SDS011;16074;42.708;23.312;2023-02-15T08:29:02;23.67;;;17.17;;
787;SDS011;16074;42.708;23.312;2023-02-15T08:31:31;27.45;;;19.02;;
787;SDS011;16074;42.708;23.312;2023-02-15T08:33:59;25.00;;;18.95;;
787;SDS011;16074;42.708;23.312;2023-02-15T08:36:29;23.35;;;17.10;;
787;SDS011;16074;42.708;23.312;2023-02-15T08:38:58;28.10;;;18.58;;
787;SDS011;16074;42.708;23.312;2023-02-15T08:41:28;25.27;;;17.23;;
787;SDS011;16074;42.708;23.312;2023-02-15T08:43:58;22.95;;;16.77;;
787;SDS011;16074;42.708;23.312;2023-02-15T08:46:29;21.92;;;17.63;;
787;SDS011;16074;42.708;23.312;2023-02-15T08:48:58;23.95;;;18.08;;
787;SDS011;16074;42.708;23.312;2023-02-15T08:51:27;25.17;;;16.40;;
787;SDS011;16074;42.708;23.312;2023-02-15T08:53:59;21.70;;;15.00;;
787;SDS011;16074;42.708;23.312;2023-02-15T08:56:30;20.33;;;15.77;;
787;SDS011;16074;42.708;23.312;2023-02-15T08:59:01;24.10;;;17.33;;
787;SDS011;16074;42.708;23.312;2023-02-15T09:01:30;25.15;;;19.15;;
787;SDS011;16074;42.708;23.312;2023-02-15T09:04:01;22.75;;;17.25;;
787;SDS011;16074;42.708;23.312;2023-02-15T09:06:33;20.70;;;16.63;;
787;SDS011;16074;42.708;23.312;2023-02-15T09:09:01;24.40;;;17.83;;
787;SDS011;16074;42.708;23.312;2023-02-15T09:11:30;21.35;;;16.70;;
787;SDS011;16074;42.708;23.312;2023-02-15T09:14:02;22.90;;;15.98;;
787;SDS011;16074;42.708;23.312;2023-02-15T09:16:32;23.15;;;17.58;;
787;SDS011;16074;42.708;23.312;2023-02-15T09:19:02;20.00;;;14.43;;
787;SDS011;16074;42.708;23.312;2023-02-15T09:21:34;20.50;;;16.17;;
787;SDS011;16074;42.708;23.312;2023-02-15T09:24:05;23.60;;;17.42;;
787;SDS011;16074;42.708;23.312;2023-02-15T09:26:35;23.38;;;17.02;;
787;SDS011;16074;42.708;23.312;2023-02-15T09:29:06;29.50;;;18.08;;
787;SDS011;16074;42.708;23.312;2023-02-15T09:31:37;22.38;;;15.38;;
787;SDS011;16074;42.708;23.312;2023-02-15T09:34:07;29.02;;;19.67;;
787;SDS011;16074;42.708;23.312;2023-02-15T09:36:38;29.48;;;20.20;;
787;SDS011;16074;42.708;23.312;2023-02-15T09:39:08;25.80;;;18.73;;
787;SDS011;16074;42.708;23.312;2023-02-15T09:44:46;31.17;;;20.35;;
787;SDS011;16074;42.708;23.312;2023-02-15T09:47:30;20.80;;;15.68;;
787;SDS011;16074;42.708;23.312;2023-02-15T09:50:17;22.02;;;16.88;;
787;SDS011;16074;42.708;23.312;2023-02-15T09:52:55;23.38;;;16.55;;
787;SDS011;16074;42.708;23.312;2023-02-15T09:55:34;26.13;;;17.33;;
787;SDS011;16074;42.708;23.312;2023-02-15T09:58:11;23.38;;;17.75;;
787;SDS011;16074;42.708;23.312;2023-02-15T10:00:49;21.50;;;15.35;;
787;SDS011;16074;42.708;23.312;2023-02-15T10:03:33;26.48;;;16.10;;
787;SDS011;16074;42.708;23.312;2023-02-15T10:06:27;19.50;;;16.25;;
787;SDS011;16074;42.708;23.312;2023-02-15T10:09:10;20.13;;;15.77;;
787;SDS011;16074;42.708;23.312;2023-02-15T10:11:54;20.33;;;15.77;;
787;SDS011;16074;42.708;23.312;2023-02-15T10:14:38;23.50;;;17.55;;
787;SDS011;16074;42.708;23.312;2023-02-15T10:17:21;22.85;;;16.77;;
787;SDS011;16074;42.708;23.312;2023-02-15T10:20:00;21.67;;;16.80;;
787;SDS011;16074;42.708;23.312;2023-02-15T10:22:42;19.50;;;15.70;;
787;SDS011;16074;42.708;23.312;2023-02-15T10:25:30;25.52;;;16.85;;
787;SDS011;16074;42.708;23.312;2023-02-15T10:28:04;24.00;;;18.00;;
787;SDS011;16074;42.708;23.312;2023-02-15T10:30:36;21.95;;;15.98;;
787;SDS011;16074;42.708;23.312;2023-02-15T10:33:10;23.73;;;16.70;;
787;SDS011;16074;42.708;23.312;2023-02-15T10:35:52;20.52;;;15.15;;
787;SDS011;16074;42.708;23.312;2023-02-15T10:38:29;23.10;;;15.95;;
787;SDS011;16074;42.708;23.312;2023-02-15T10:41:10;24.27;;;17.30;;
787;SDS011;16074;42.708;23.312;2023-02-15T10:47:01;21.98;;;16.83;;
787;SDS011;16074;42.708;23.312;2023-02-15T10:49:49;22.52;;;18.40;;
787;SDS011;16074;42.708;23.312;2023-02-15T10:52:30;24.38;;;17.67;;
787;SDS011;16074;42.708;23.312;2023-02-15T10:55:11;28.55;;;19.05;;
787;SDS011;16074;42.708;23.312;2023-02-15T10:57:46;24.70;;;17.92;;
787;SDS011;16074;42.708;23.312;2023-02-15T11:00:23;24.30;;;17.85;;
787;SDS011;16074;42.708;23.312;2023-02-15T11:03:02;22.55;;;15.43;;
787;SDS011;16074;42.708;23.312;2023-02-15T11:05:45;22.80;;;16.90;;
787;SDS011;16074;42.708;23.312;2023-02-15T11:08:25;24.02;;;17.40;;
787;SDS011;16074;42.708;23.312;2023-02-15T11:10:58;21.92;;;17.10;;
787;SDS011;16074;42.708;23.312;2023-02-15T11:13:32;25.00;;;18.70;;
787;SDS011;16074;42.708;23.312;2023-02-15T11:16:05;23.75;;;17.73;;
787;SDS011;16074;42.708;23.312;2023-02-15T11:18:39;29.17;;;17.73;;
787;SDS011;16074;42.708;23.312;2023-02-15T11:21:11;25.38;;;18.98;;
787;SDS011;16074;42.708;23.312;2023-02-15T11:23:45;24.20;;;18.20;;
787;SDS011;16074;42.708;23.312;2023-02-15T11:26:16;22.55;;;17.75;;
787;SDS011;16074;42.708;23.312;2023-02-15T11:28:52;25.58;;;18.42;;
787;SDS011;16074;42.708;23.312;2023-02-15T11:31:25;21.38;;;17.33;;
787;SDS011;16074;42.708;23.312;2023-02-15T11:34:02;22.20;;;17.08;;
787;SDS011;16074;42.708;23.312;2023-02-15T11:36:40;25.42;;;19.67;;
787;SDS011;16074;42.708;23.312;2023-02-15T11:39:12;23.13;;;18.55;;
787;SDS011;16074;42.708;23.312;2023-02-15T11:41:44;27.35;;;18.90;;
787;SDS011;16074;42.708;23.312;2023-02-15T11:44:20;25.67;;;18.35;;
787;SDS011;16074;42.708;23.312;2023-02-15T11:46:52;22.92;;;17.48;;
787;SDS011;16074;42.708;23.312;2023-02-15T11:49:22;24.23;;;17.60;;
787;SDS011;16074;42.708;23.312;2023-02-15T11:51:52;24.98;;;17.65;;
787;SDS011;16074;42.708;23.312;2023-02-15T11:54:23;22.27;;;18.20;;
787;SDS011;16074;42.708;23.312;2023-02-15T11:56:55;27.17;;;18.17;;
787;SDS011;16074;42.708;23.312;2023-02-15T11:59:29;21.95;;;18.17;;
787;SDS011;16074;42.708;23.312;2023-02-15T12:02:00;20.38;;;16.75;;
787;SDS011;16074;42.708;23.312;2023-02-15T12:04:29;25.48;;;17.50;;
787;SDS011;16074;42.708;23.312;2023-02-15T12:07:02;24.48;;;17.92;;
787;SDS011;16074;42.708;23.312;2023-02-15T12:09:46;24.75;;;17.88;;
787;SDS011;16074;42.708;23.312;2023-02-15T12:12:22;23.65;;;19.40;;
787;SDS011;16074;42.708;23.312;2023-02-15T12:14:54;19.70;;;15.23;;
787;SDS011;16074;42.708;23.312;2023-02-15T12:17:24;22.30;;;16.13;;
787;SDS011;16074;42.708;23.312;2023-02-15T12:19:54;20.33;;;16.15;;
787;SDS011;16074;42.708;23.312;2023-02-15T12:22:26;21.88;;;16.92;;
787;SDS011;16074;42.708;23.312;2023-02-15T12:24:58;20.42;;;17.80;;
787;SDS011;16074;42.708;23.312;2023-02-15T12:27:29;22.60;;;17.90;;
787;SDS011;16074;42.708;23.312;2023-02-15T12:30:03;22.98;;;19.00;;
787;SDS011;16074;42.708;23.312;2023-02-15T12:32:36;23.30;;;18.90;;
787;SDS011;16074;42.708;23.312;2023-02-15T12:35:21;23.55;;;19.60;;
787;SDS011;16074;42.708;23.312;2023-02-15T12:37:56;24.63;;;19.58;;
787;SDS011;16074;42.708;23.312;2023-02-15T12:40:29;20.75;;;17.63;;
787;SDS011;16074;42.708;23.312;2023-02-15T12:42:58;23.52;;;18.38;;
787;SDS011;16074;42.708;23.312;2023-02-15T12:45:29;21.65;;;17.48;;
787;SDS011;16074;42.708;23.312;2023-02-15T12:48:07;23.52;;;19.38;;
787;SDS011;16074;42.708;23.312;2023-02-15T12:50:42;21.27;;;16.98;;
787;SDS011;16074;42.708;23.312;2023-02-15T12:53:15;21.65;;;18.75;;
787;SDS011;16074;42.708;23.312;2023-02-15T12:55:49;25.13;;;18.10;;
787;SDS011;16074;42.708;23.312;2023-02-15T12:58:20;21.90;;;18.35;;
787;SDS011;16074;42.708;23.312;2023-02-15T13:01:04;19.20;;;16.20;;
787;SDS011;16074;42.708;23.312;2023-02-15T13:03:40;27.30;;;20.70;;
787;SDS011;16074;42.708;23.312;2023-02-15T13:06:23;20.13;;;17.92;;
787;SDS011;16074;42.708;23.312;2023-02-15T13:08:52;22.02;;;17.83;;
787;SDS011;16074;42.708;23.312;2023-02-15T13:11:24;25.83;;;18.98;;
787;SDS011;16074;42.708;23.312;2023-02-15T13:13:57;25.50;;;18.25;;
787;SDS011;16074;42.708;23.312;2023-02-15T13:16:30;23.58;;;17.80;;
787;SDS011;16074;42.708;23.312;2023-02-15T13:19:02;20.38;;;17.35;;
787;SDS011;16074;42.708;23.312;2023-02-15T13:21:35;19.05;;;17.00;;
787;SDS011;16074;42.708;23.312;2023-02-15T13:24:10;20.20;;;16.95;;
787;SDS011;16074;42.708;23.312;2023-02-15T13:26:45;22.05;;;18.42;;
787;SDS011;16074;42.708;23.312;2023-02-15T13:29:17;22.65;;;17.83;;
787;SDS011;16074;42.708;23.312;2023-02-15T13:31:51;23.33;;;17.48;;
787;SDS011;16074;42.708;23.312;2023-02-15T13:34:23;26.30;;;18.80;;
787;SDS011;16074;42.708;23.312;2023-02-15T13:36:57;24.30;;;18.77;;
787;SDS011;16074;42.708;23.312;2023-02-15T13:39:35;21.80;;;18.13;;
787;SDS011;16074;42.708;23.312;2023-02-15T13:42:13;20.05;;;16.65;;
787;SDS011;16074;42.708;23.312;2023-02-15T13:44:55;21.60;;;18.20;;
787;SDS011;16074;42.708;23.312;2023-02-15T13:47:34;20.92;;;18.08;;
787;SDS011;16074;42.708;23.312;2023-02-15T13:50:15;21.55;;;18.70;;
787;SDS011;16074;42.708;23.312;2023-02-15T13:52:57;23.80;;;18.63;;
787;SDS011;16074;42.708;23.312;2023-02-15T13:55:37;21.98;;;17.60;;
787;SDS011;16074;42.708;23.312;2023-02-15T13:58:22;23.25;;;18.50;;
787;SDS011;16074;42.708;23.312;2023-02-15T14:01:07;22.13;;;17.23;;
787;SDS011;16074;42.708;23.312;2023-02-15T14:03:54;25.00;;;19.05;;
787;SDS011;16074;42.708;23.312;2023-02-15T14:06:40;27.65;;;19.65;;
787;SDS011;16074;42.708;23.312;2023-02-15T14:09:29;24.48;;;18.85;;
787;SDS011;16074;42.708;23.312;2023-02-15T14:15:14;23.00;;;19.63;;
787;SDS011;16074;42.708;23.312;2023-02-15T14:17:55;25.30;;;19.20;;
787;SDS011;16074;42.708;23.312;2023-02-15T14:20:39;23.70;;;20.38;;
787;SDS011;16074;42.708;23.312;2023-02-15T14:23:19;23.63;;;19.83;;
787;SDS011;16074;42.708;23.312;2023-02-15T14:25:58;25.58;;;20.10;;
787;SDS011;16074;42.708;23.312;2023-02-15T14:28:33;24.02;;;20.27;;
787;SDS011;16074;42.708;23.312;2023-02-15T14:31:07;21.40;;;17.55;;
787;SDS011;16074;42.708;23.312;2023-02-15T14:33:39;22.30;;;19.13;;
787;SDS011;16074;42.708;23.312;2023-02-15T14:36:13;23.02;;;19.95;;
787;SDS011;16074;42.708;23.312;2023-02-15T14:38:51;26.67;;;20.10;;
787;SDS011;16074;42.708;23.312;2023-02-15T14:41:29;24.45;;;20.30;;
787;SDS011;16074;42.708;23.312;2023-02-15T14:44:07;26.63;;;20.67;;
787;SDS011;16074;42.708;23.312;2023-02-15T14:46:42;22.55;;;20.02;;
787;SDS011;16074;42.708;23.312;2023-02-15T14:49:17;23.45;;;19.50;;
787;SDS011;16074;42.708;23.312;2023-02-15T14:51:57;23.65;;;20.90;;
787;SDS011;16074;42.708;23.312;2023-02-15T14:57:30;26.17;;;20.70;;
787;SDS011;16074;42.708;23.312;2023-02-15T15:03:09;28.90;;;20.30;;
787;SDS011;16074;42.708;23.312;2023-02-15T15:05:46;27.35;;;19.35;;
787;SDS011;16074;42.708;23.312;2023-02-15T15:08:31;24.38;;;20.95;;
787;SDS011;16074;42.708;23.312;2023-02-15T15:14:10;23.20;;;17.27;;
787;SDS011;16074;42.708;23.312;2023-02-15T15:17:04;27.50;;;19.95;;
787;SDS011;16074;42.708;23.312;2023-02-15T15:22:27;29.30;;;21.95;;
787;SDS011;16074;42.708;23.312;2023-02-15T15:24:58;24.15;;;20.17;;
787;SDS011;16074;42.708;23.312;2023-02-15T15:27:46;26.05;;;21.13;;
787;SDS011;16074;42.708;23.312;2023-02-15T15:46:22;27.60;;;20.63;;
787;SDS011;16074;42.708;23.312;2023-02-15T15:49:06;27.75;;;20.77;;